createdAt,value
2023-04-27T00:02:13.556Z,6.15
2023-04-27T00:04:40.727Z,4.45
2023-04-27T00:07:07.587Z,3.13
2023-04-27T00:09:34.196Z,3.17
2023-04-27T00:12:01.550Z,4.68
2023-04-27T00:14:28.842Z,4.25
2023-04-27T00:16:55.877Z,3.72
2023-04-27T00:19:22.840Z,3.58
2023-04-27T00:21:49.523Z,3.88
2023-04-27T00:24:16.226Z,4.72
2023-04-27T00:26:42.881Z,5.43
2023-04-27T00:29:09.546Z,2.45
2023-04-27T00:31:36.206Z,5.20
2023-04-27T00:34:02.909Z,3.90
2023-04-27T00:36:29.540Z,3.60
2023-04-27T00:38:56.260Z,3.45
2023-04-27T00:41:23.106Z,4.65
2023-04-27T00:43:49.729Z,3.15
2023-04-27T00:46:16.570Z,4.15
2023-04-27T00:48:43.515Z,2.90
2023-04-27T00:51:10.475Z,6.15
2023-04-27T00:53:37.128Z,3.15
2023-04-27T00:56:07.188Z,4.75
2023-04-27T00:58:33.842Z,5.20
2023-04-27T01:01:00.507Z,3.72
2023-04-27T01:03:28.122Z,3.70
2023-04-27T01:05:56.737Z,4.07
2023-04-27T01:08:23.405Z,4.18
2023-04-27T01:10:50.112Z,5.10
2023-04-27T01:13:17.049Z,4.78
2023-04-27T01:15:43.686Z,3.38
2023-04-27T01:18:10.446Z,4.85
2023-04-27T01:20:38.759Z,4.03
2023-04-27T01:23:05.739Z,3.10
2023-04-27T01:25:32.439Z,4.13
2023-04-27T01:27:59.038Z,4.18
2023-04-27T01:30:28.447Z,2.45
2023-04-27T01:32:55.170Z,4.53
2023-04-27T01:35:21.914Z,3.25
2023-04-27T01:37:48.561Z,4.20
2023-04-27T01:40:15.544Z,4.53
2023-04-27T01:42:42.174Z,3.45
2023-04-27T01:45:09.495Z,3.90
2023-04-27T01:47:36.380Z,4.38
2023-04-27T01:50:03.055Z,2.60
2023-04-27T01:52:30.070Z,8.90
2023-04-27T01:54:56.943Z,6.43
2023-04-27T01:57:23.626Z,4.75
2023-04-27T01:59:50.426Z,6.30
2023-04-27T02:02:17.098Z,4.25
2023-04-27T02:04:45.238Z,5.93
2023-04-27T02:07:12.236Z,2.95
2023-04-27T02:09:39.000Z,4.38
2023-04-27T02:12:06.191Z,3.22
2023-04-27T02:14:32.835Z,5.47
2023-04-27T02:16:59.557Z,3.78
2023-04-27T02:19:26.435Z,5.35
2023-04-27T02:21:53.256Z,4.60
2023-04-27T02:24:20.033Z,5.90
2023-04-27T02:26:46.751Z,4.10
2023-04-27T02:29:13.611Z,4.32
2023-04-27T02:31:41.197Z,4.78
2023-04-27T02:34:07.856Z,6.63
2023-04-27T02:36:34.486Z,4.28
2023-04-27T02:39:01.691Z,3.25
2023-04-27T02:41:31.924Z,4.75
2023-04-27T02:43:58.509Z,3.30
2023-04-27T02:46:25.249Z,3.72
2023-04-27T02:48:51.880Z,3.15
2023-04-27T02:51:18.539Z,2.65
2023-04-27T02:53:45.529Z,4.88
2023-04-27T02:56:12.160Z,2.75
2023-04-27T02:58:38.839Z,3.45
2023-04-27T03:01:05.573Z,4.63
2023-04-27T03:03:32.370Z,5.72
2023-04-27T03:05:59.084Z,4.53
2023-04-27T03:08:26.154Z,4.88
2023-04-27T03:10:52.836Z,3.40
2023-04-27T03:13:19.505Z,4.18
2023-04-27T03:15:46.376Z,3.50
2023-04-27T03:18:13.017Z,4.85
2023-04-27T03:20:39.631Z,4.93
2023-04-27T03:23:07.118Z,4.78
2023-04-27T03:25:33.776Z,4.43
2023-04-27T03:28:00.418Z,3.47
2023-04-27T03:30:27.085Z,4.30
2023-04-27T03:32:54.569Z,3.35
2023-04-27T03:35:21.577Z,3.80
2023-04-27T03:37:48.251Z,4.43
2023-04-27T03:40:15.339Z,4.05
2023-04-27T03:42:42.060Z,3.15
2023-04-27T03:45:09.140Z,8.10
2023-04-27T03:47:35.833Z,7.68
2023-04-27T03:50:02.541Z,3.63
2023-04-27T03:52:29.170Z,4.00
2023-04-27T03:54:55.784Z,6.88
2023-04-27T03:57:22.517Z,4.00
2023-04-27T03:59:49.275Z,2.67
2023-04-27T04:02:16.215Z,4.80
2023-04-27T04:04:43.079Z,8.85
2023-04-27T04:07:09.906Z,5.60
2023-04-27T04:09:36.557Z,7.25
2023-04-27T04:12:03.844Z,9.38
2023-04-27T04:14:30.606Z,2.88
2023-04-27T04:16:57.203Z,4.03
2023-04-27T04:19:25.007Z,4.50
2023-04-27T04:21:52.812Z,3.85
2023-04-27T04:24:19.488Z,4.32
2023-04-27T04:26:47.256Z,3.47
2023-04-27T04:29:14.131Z,4.82
2023-04-27T04:31:40.945Z,7.50
2023-04-27T04:34:08.662Z,5.15
2023-04-27T04:36:36.289Z,13.77
2023-04-27T04:39:05.392Z,6.25
2023-04-27T04:41:32.466Z,8.07
2023-04-27T04:43:59.876Z,4.10
2023-04-27T04:46:26.612Z,5.68
2023-04-27T04:48:54.862Z,5.28
2023-04-27T04:51:21.704Z,5.10
2023-04-27T04:53:48.394Z,17.70
2023-04-27T04:56:15.007Z,14.38
2023-04-27T04:58:41.692Z,6.80
2023-04-27T05:01:08.614Z,4.97
2023-04-27T05:03:35.457Z,9.07
2023-04-27T05:06:02.213Z,6.47
2023-04-27T05:08:29.016Z,12.68
2023-04-27T05:10:55.656Z,9.95
2023-04-27T05:13:22.647Z,3.78
2023-04-27T05:15:49.371Z,7.68
2023-04-27T05:18:16.149Z,5.72
2023-04-27T05:20:43.012Z,10.05
2023-04-27T05:23:09.631Z,15.55
2023-04-27T05:25:41.882Z,14.25
2023-04-27T05:28:09.562Z,8.68
2023-04-27T05:30:36.387Z,7.18
2023-04-27T05:33:04.192Z,4.85
2023-04-27T05:35:31.449Z,7.22
2023-04-27T05:37:58.231Z,8.23
2023-04-27T05:40:25.049Z,11.45
2023-04-27T05:42:51.801Z,3.92
2023-04-27T05:45:18.482Z,9.57
2023-04-27T05:47:45.164Z,5.65
2023-04-27T05:50:12.055Z,5.18
2023-04-27T05:52:39.223Z,6.15
2023-04-27T05:55:07.591Z,4.63
2023-04-27T05:57:34.319Z,5.57
2023-04-27T06:00:01.662Z,8.27
2023-04-27T06:02:28.545Z,7.22
2023-04-27T06:04:55.422Z,20.45
2023-04-27T06:07:22.093Z,2.85
2023-04-27T06:09:48.817Z,10.48
2023-04-27T06:12:15.541Z,6.35
2023-04-27T06:14:42.298Z,7.97
2023-04-27T06:17:08.983Z,12.52
2023-04-27T06:19:35.683Z,13.38
2023-04-27T06:22:03.620Z,5.10
2023-04-27T06:24:30.364Z,5.72
2023-04-27T06:26:57.168Z,7.68
2023-04-27T06:29:23.855Z,7.50
2023-04-27T06:31:50.589Z,10.18
2023-04-27T06:34:17.318Z,7.13
2023-04-27T06:36:43.989Z,9.25
2023-04-27T06:39:10.602Z,3.50
2023-04-27T06:41:37.225Z,2.92
2023-04-27T06:44:03.990Z,11.02
2023-04-27T06:46:30.751Z,2.75
2023-04-27T06:48:57.396Z,5.68
2023-04-27T06:51:24.045Z,5.68
2023-04-27T06:53:51.068Z,2.35
2023-04-27T06:56:17.770Z,4.25
2023-04-27T06:58:44.401Z,8.27
2023-04-27T07:01:11.187Z,4.32
2023-04-27T07:03:38.123Z,7.63
2023-04-27T07:06:04.906Z,6.38
2023-04-27T07:08:31.618Z,4.43
2023-04-27T07:10:58.432Z,6.88
2023-04-27T07:13:25.178Z,5.15
2023-04-27T07:15:58.073Z,4.72
2023-04-27T07:18:24.955Z,3.25
2023-04-27T07:20:51.638Z,6.47
2023-04-27T07:23:18.348Z,4.88
2023-04-27T07:25:46.289Z,7.60
2023-04-27T07:28:13.038Z,4.47
2023-04-27T07:30:39.788Z,3.83
2023-04-27T07:33:07.264Z,3.95
2023-04-27T07:35:34.020Z,4.57
2023-04-27T07:38:03.826Z,5.00
2023-04-27T07:40:30.830Z,10.90
2023-04-27T07:42:58.395Z,4.72
2023-04-27T07:45:32.039Z,7.13
2023-04-27T07:48:00.244Z,4.93
2023-04-27T07:50:28.536Z,6.25
2023-04-27T07:52:55.308Z,4.53
2023-04-27T07:55:23.532Z,8.35
2023-04-27T07:57:51.324Z,4.22
2023-04-27T08:00:18.215Z,6.50
2023-04-27T08:02:45.128Z,4.70
2023-04-27T08:05:12.482Z,5.40
2023-04-27T08:07:44.614Z,6.15
2023-04-27T08:10:11.650Z,9.82
2023-04-27T08:12:38.312Z,5.07
2023-04-27T08:15:08.696Z,4.25
2023-04-27T08:17:36.634Z,10.18
2023-04-27T08:20:03.754Z,5.57
2023-04-27T08:22:30.668Z,2.45
2023-04-27T08:24:57.337Z,4.68
2023-04-27T08:27:23.980Z,6.18
2023-04-27T08:29:50.706Z,7.78
2023-04-27T08:32:17.435Z,3.95
2023-04-27T08:34:45.771Z,4.53
2023-04-27T08:37:12.427Z,6.10
2023-04-27T08:39:39.120Z,5.72
2023-04-27T08:42:12.690Z,3.70
2023-04-27T08:44:42.686Z,7.75
2023-04-27T08:47:09.560Z,4.68
2023-04-27T08:49:38.610Z,11.38
2023-04-27T08:52:12.196Z,4.50
2023-04-27T08:54:39.067Z,5.20
2023-04-27T08:57:12.523Z,8.32
2023-04-27T08:59:40.148Z,11.27
2023-04-27T09:02:07.173Z,3.78
2023-04-27T09:04:40.297Z,4.32
2023-04-27T09:07:11.750Z,9.48
2023-04-27T09:09:38.415Z,4.00
2023-04-27T09:12:21.051Z,6.78
2023-04-27T09:15:01.356Z,4.63
2023-04-27T09:17:28.380Z,4.72
2023-04-27T09:20:09.153Z,3.72
2023-04-27T09:22:53.019Z,5.60
2023-04-27T09:25:23.521Z,4.32
2023-04-27T09:27:50.196Z,4.57
2023-04-27T09:30:17.361Z,4.63
2023-04-27T09:32:54.122Z,6.45
2023-04-27T09:35:22.580Z,10.15
2023-04-27T09:37:52.016Z,8.60
2023-04-27T09:40:19.812Z,4.75
2023-04-27T09:42:46.774Z,8.27
2023-04-27T09:45:13.441Z,10.98
2023-04-27T09:47:40.098Z,4.93
2023-04-27T09:50:07.051Z,5.60
2023-04-27T09:52:33.730Z,5.72
2023-04-27T09:55:01.446Z,9.95
2023-04-27T09:57:51.115Z,10.38
2023-04-27T10:00:30.269Z,4.60
2023-04-27T10:03:03.807Z,5.03
2023-04-27T10:05:48.737Z,5.82
2023-04-27T10:08:15.576Z,7.63
2023-04-27T10:10:43.966Z,3.70
2023-04-27T10:13:23.529Z,6.28
2023-04-27T10:15:50.482Z,3.90
2023-04-27T10:18:30.732Z,11.00
2023-04-27T10:21:09.362Z,4.13
2023-04-27T10:23:48.570Z,9.25
2023-04-27T10:26:25.568Z,4.18
2023-04-27T10:29:08.195Z,6.57
2023-04-27T10:31:35.196Z,6.55
2023-04-27T10:34:12.182Z,8.70
2023-04-27T10:36:39.279Z,5.72
2023-04-27T10:39:39.638Z,8.60
2023-04-27T10:42:12.883Z,3.33
2023-04-27T10:44:39.629Z,6.00
2023-04-27T10:47:16.261Z,6.07
2023-04-27T10:49:43.152Z,9.23
2023-04-27T10:52:09.819Z,5.63
2023-04-27T10:54:37.502Z,4.78
2023-04-27T10:57:08.130Z,6.97
2023-04-27T10:59:35.837Z,4.03
2023-04-27T11:02:02.927Z,3.53
2023-04-27T11:04:40.377Z,5.50
2023-04-27T11:07:11.001Z,5.10
2023-04-27T11:09:38.424Z,5.18
2023-04-27T11:12:08.695Z,3.03
2023-04-27T11:14:36.908Z,5.80
2023-04-27T11:17:06.983Z,5.03
2023-04-27T11:19:33.697Z,5.10
2023-04-27T11:22:04.674Z,7.82
2023-04-27T11:24:31.301Z,4.70
2023-04-27T11:26:57.978Z,4.82
2023-04-27T11:29:24.759Z,6.75
2023-04-27T11:31:51.724Z,3.55
2023-04-27T11:34:22.809Z,5.18
2023-04-27T11:37:10.670Z,3.35
2023-04-27T11:39:44.923Z,3.97
2023-04-27T11:42:24.588Z,4.05
2023-04-27T11:44:55.178Z,1.55
2023-04-27T11:47:22.949Z,5.47
2023-04-27T11:49:50.218Z,4.03
2023-04-27T11:52:16.999Z,4.97
2023-04-27T11:54:50.838Z,3.15
2023-04-27T11:57:17.509Z,3.83
2023-04-27T11:59:44.264Z,5.05
2023-04-27T12:02:11.064Z,5.18
2023-04-27T12:04:38.159Z,4.40
2023-04-27T12:07:05.063Z,1.40
2023-04-27T12:09:31.693Z,3.65
2023-04-27T12:11:58.371Z,7.78
2023-04-27T12:14:25.090Z,6.15
2023-04-27T12:16:52.047Z,7.70
2023-04-27T12:19:18.813Z,6.20
2023-04-27T12:21:45.512Z,4.05
2023-04-27T12:24:12.747Z,84.43
2023-04-27T12:26:39.891Z,3.45
2023-04-27T12:29:07.183Z,4.75
2023-04-27T12:31:34.149Z,2.25
2023-04-27T12:34:01.204Z,7.05
2023-04-27T12:36:28.705Z,3.03
2023-04-27T12:39:00.052Z,4.82
2023-04-27T12:41:26.844Z,7.75
2023-04-27T12:43:53.497Z,3.90
2023-04-27T12:46:20.230Z,3.45
2023-04-27T12:48:47.046Z,7.18
2023-04-27T12:51:14.505Z,3.30
2023-04-27T12:53:41.311Z,3.83
2023-04-27T12:56:08.121Z,3.53
2023-04-27T12:58:35.098Z,7.05
2023-04-27T13:01:01.952Z,4.05
2023-04-27T13:03:28.756Z,3.50
2023-04-27T13:05:55.503Z,6.57
2023-04-27T13:08:22.211Z,5.32
2023-04-27T13:10:48.919Z,3.10
2023-04-27T13:13:15.675Z,3.58
2023-04-27T13:15:42.351Z,5.93
2023-04-27T13:18:09.036Z,5.88
2023-04-27T13:20:36.313Z,3.70
2023-04-27T13:23:04.779Z,4.85
2023-04-27T13:27:58.239Z,7.78
2023-04-27T13:30:25.019Z,4.53
2023-04-27T13:32:52.738Z,11.35
2023-04-27T13:35:19.776Z,11.90
2023-04-27T13:37:48.032Z,4.88
2023-04-27T13:40:14.908Z,7.68
2023-04-27T13:42:41.725Z,8.65
2023-04-27T13:45:08.836Z,7.18
2023-04-27T13:47:38.439Z,6.53
2023-04-27T13:50:11.524Z,7.45
2023-04-27T13:52:38.289Z,4.15
2023-04-27T13:55:05.619Z,16.35
2023-04-27T13:57:32.313Z,6.50
2023-04-27T14:00:02.407Z,5.18
2023-04-27T14:02:29.526Z,4.93
2023-04-27T14:04:56.663Z,11.63
2023-04-27T14:07:23.591Z,7.25
2023-04-27T14:09:50.683Z,4.15
2023-04-27T14:12:17.498Z,8.23
2023-04-27T14:14:44.210Z,6.45
2023-04-27T14:17:11.012Z,8.45
2023-04-27T14:19:37.667Z,6.53
2023-04-27T14:22:06.438Z,6.07
2023-04-27T14:24:33.093Z,5.82
2023-04-27T14:26:59.722Z,9.70
2023-04-27T14:29:26.755Z,8.07
2023-04-27T14:31:53.477Z,6.45
2023-04-27T14:34:21.600Z,8.55
2023-04-27T14:36:48.516Z,9.68
2023-04-27T14:39:15.455Z,7.20
2023-04-27T14:41:42.363Z,6.15
2023-04-27T14:44:09.094Z,13.30
2023-04-27T14:46:35.801Z,9.40
2023-04-27T14:49:02.554Z,6.80
2023-04-27T14:51:29.265Z,11.45
2023-04-27T14:53:55.898Z,5.65
2023-04-27T14:56:23.270Z,9.68
2023-04-27T14:58:50.094Z,5.30
2023-04-27T15:01:16.747Z,10.50
2023-04-27T15:03:43.610Z,5.72
2023-04-27T15:06:10.546Z,9.48
2023-04-27T15:08:37.198Z,10.13
2023-04-27T15:11:04.462Z,7.80
2023-04-27T15:13:31.193Z,7.00
2023-04-27T15:15:58.613Z,11.02
2023-04-27T15:18:25.680Z,13.88
2023-04-27T15:20:55.739Z,12.00
2023-04-27T15:23:22.750Z,8.57
2023-04-27T15:25:49.695Z,6.90
2023-04-27T15:28:16.897Z,7.97
2023-04-27T15:30:44.221Z,15.15
2023-04-27T15:33:11.601Z,10.80
2023-04-27T15:35:41.241Z,4.25
2023-04-27T15:38:08.935Z,9.05
2023-04-27T15:40:35.690Z,11.88
2023-04-27T15:43:02.441Z,9.45
2023-04-27T15:45:29.232Z,12.00
2023-04-27T15:47:56.377Z,17.90
2023-04-27T15:50:23.188Z,12.93
2023-04-27T15:52:50.027Z,7.78
2023-04-27T15:55:16.824Z,6.30
2023-04-27T15:57:43.522Z,5.15
2023-04-27T16:00:10.593Z,4.40
2023-04-27T16:02:40.499Z,5.18
2023-04-27T16:05:08.101Z,5.50
2023-04-27T16:07:35.078Z,7.95
2023-04-27T16:10:01.949Z,10.73
2023-04-27T16:12:28.820Z,6.32
2023-04-27T16:14:59.148Z,10.50
2023-04-27T16:17:31.732Z,7.50
2023-04-27T16:19:58.447Z,8.05
2023-04-27T16:22:25.138Z,8.25
2023-04-27T16:24:51.968Z,9.50
2023-04-27T16:27:20.616Z,5.25
2023-04-27T16:29:47.400Z,5.97
2023-04-27T16:32:14.180Z,10.93
2023-04-27T16:34:41.620Z,5.32
2023-04-27T16:37:08.342Z,9.23
2023-04-27T16:39:35.110Z,17.98
2023-04-27T16:42:01.798Z,7.68
2023-04-27T16:44:28.462Z,8.73
2023-04-27T16:46:55.129Z,9.32
2023-04-27T16:49:21.820Z,5.32
2023-04-27T16:51:48.512Z,10.70
2023-04-27T16:54:16.576Z,8.63
2023-04-27T16:56:43.357Z,8.15
2023-04-27T16:59:12.537Z,11.10
2023-04-27T17:01:40.029Z,18.23
2023-04-27T17:04:06.884Z,22.50
2023-04-27T17:06:34.833Z,12.48
2023-04-27T17:09:01.656Z,32.75
2023-04-27T17:11:28.348Z,23.88
2023-04-27T17:13:55.091Z,51.15
2023-04-27T17:16:22.033Z,26.98
2023-04-27T17:18:49.012Z,42.63
2023-04-27T17:21:16.770Z,79.63
2023-04-27T17:23:46.494Z,23.80
2023-04-27T17:26:15.850Z,30.50
2023-04-27T17:28:42.550Z,25.75
2023-04-27T17:31:09.309Z,30.17
2023-04-27T17:33:36.109Z,32.42
2023-04-27T17:36:02.822Z,26.40
2023-04-27T17:38:29.435Z,24.27
2023-04-27T17:40:56.333Z,32.35
2023-04-27T17:43:22.980Z,35.35
2023-04-27T17:45:49.655Z,27.05
2023-04-27T17:48:16.460Z,22.88
2023-04-27T17:50:43.473Z,19.48
2023-04-27T17:53:10.131Z,26.23
2023-04-27T17:55:36.775Z,21.30
2023-04-27T17:58:06.545Z,32.13
2023-04-27T18:00:33.467Z,17.38
2023-04-27T18:03:00.445Z,22.42
2023-04-27T18:05:27.375Z,24.77
2023-04-27T18:07:54.063Z,25.58
2023-04-27T18:10:20.794Z,17.08
2023-04-27T18:12:47.521Z,24.38
2023-04-27T18:15:14.216Z,32.53
2023-04-27T18:17:41.122Z,26.75
2023-04-27T18:20:10.101Z,40.55
2023-04-27T18:22:39.483Z,39.13
2023-04-27T18:25:06.771Z,16.60
2023-04-27T18:27:33.488Z,18.90
2023-04-27T18:30:00.141Z,21.15
2023-04-27T18:32:26.817Z,20.92
2023-04-27T18:34:54.038Z,35.75
2023-04-27T18:37:20.822Z,25.25
2023-04-27T18:39:47.583Z,25.33
2023-04-27T18:42:14.225Z,18.52
2023-04-27T18:44:40.989Z,16.92
2023-04-27T18:47:07.940Z,17.13
2023-04-27T18:49:34.583Z,14.63
2023-04-27T18:52:01.302Z,10.32
2023-04-27T18:54:27.970Z,17.92
2023-04-27T18:56:54.679Z,19.77
2023-04-27T18:59:21.325Z,16.55
2023-04-27T19:01:48.063Z,13.13
2023-04-27T19:04:16.369Z,13.43
2023-04-27T19:06:43.199Z,17.52
2023-04-27T19:09:10.164Z,19.40
2023-04-27T19:11:36.831Z,21.23
2023-04-27T19:14:03.578Z,12.27
2023-04-27T19:16:30.477Z,10.90
2023-04-27T19:18:57.509Z,9.18
2023-04-27T19:21:24.489Z,11.82
2023-04-27T19:23:51.219Z,11.40
2023-04-27T19:26:18.206Z,15.95
2023-04-27T19:28:45.492Z,11.38
2023-04-27T19:31:12.317Z,19.35
2023-04-27T19:33:46.728Z,12.60
2023-04-27T19:38:40.753Z,19.33
2023-04-27T19:41:07.855Z,13.60
2023-04-27T19:43:34.993Z,19.48
2023-04-27T19:46:02.019Z,23.23
2023-04-27T19:48:28.844Z,20.77
2023-04-27T19:50:55.646Z,19.38
2023-04-27T19:53:22.302Z,15.90
2023-04-27T19:55:49.372Z,27.52
2023-04-27T19:58:16.375Z,31.35
2023-04-27T20:00:43.364Z,66.20
2023-04-27T20:03:12.687Z,53.40
2023-04-27T20:05:40.088Z,46.47
2023-04-27T20:08:07.295Z,24.52
2023-04-27T20:10:34.335Z,17.92
2023-04-27T20:13:01.356Z,23.15
2023-04-27T20:15:28.575Z,22.52
2023-04-27T20:17:55.625Z,24.10
2023-04-27T20:20:22.578Z,22.92
2023-04-27T20:22:49.558Z,20.25
2023-04-27T20:25:16.254Z,15.95
2023-04-27T20:27:43.283Z,18.35
2023-04-27T20:30:10.911Z,16.70
2023-04-27T20:32:40.728Z,34.58
2023-04-27T20:35:11.555Z,22.35
2023-04-27T20:37:39.374Z,32.28
2023-04-27T20:40:07.856Z,30.17
2023-04-27T20:42:34.793Z,29.48
2023-04-27T20:45:02.066Z,42.38
2023-04-27T20:47:29.019Z,64.22
2023-04-27T20:49:55.768Z,19.63
2023-04-27T20:52:22.462Z,62.50
2023-04-27T20:54:49.145Z,51.88
2023-04-27T20:57:16.486Z,31.05
2023-04-27T20:59:43.126Z,28.75
2023-04-27T21:02:09.802Z,27.13
2023-04-27T21:04:36.759Z,29.60
2023-04-27T21:07:03.575Z,17.80
2023-04-27T21:09:30.383Z,15.73
2023-04-27T21:11:57.057Z,20.83
2023-04-27T21:14:23.653Z,22.33
2023-04-27T21:16:50.428Z,27.90
2023-04-27T21:19:17.665Z,18.65
2023-04-27T21:21:44.329Z,13.90
2023-04-27T21:24:11.120Z,8.82
2023-04-27T21:26:37.881Z,11.88
2023-04-27T21:29:05.974Z,12.77
2023-04-27T21:31:33.394Z,8.77
2023-04-27T21:34:00.403Z,11.30
2023-04-27T21:36:26.995Z,9.23
2023-04-27T21:38:53.656Z,15.23
2023-04-27T21:41:20.303Z,14.00
2023-04-27T21:43:46.977Z,32.08
2023-04-27T21:46:13.676Z,33.88
2023-04-27T21:48:40.390Z,29.30
2023-04-27T21:51:07.086Z,13.85
2023-04-27T21:53:33.735Z,21.27
2023-04-27T21:56:00.477Z,18.33
2023-04-27T21:58:27.200Z,20.25
2023-04-27T22:00:53.801Z,10.18
2023-04-27T22:03:21.830Z,18.02
2023-04-27T22:05:52.863Z,16.58
2023-04-27T22:08:19.736Z,18.33
2023-04-27T22:10:47.262Z,21.02
2023-04-27T22:15:43.538Z,14.02
2023-04-27T22:18:10.396Z,8.82
2023-04-27T22:20:37.293Z,14.00
2023-04-27T22:23:03.963Z,9.63
2023-04-27T22:25:30.676Z,12.15
2023-04-27T22:27:57.381Z,8.65
2023-04-27T22:30:23.987Z,10.57
2023-04-27T22:32:50.693Z,8.75
2023-04-27T22:37:49.022Z,7.22
2023-04-27T22:40:15.711Z,6.43
2023-04-27T22:42:42.360Z,7.38
2023-04-27T22:45:09.433Z,5.57
2023-04-27T22:47:36.213Z,5.88
2023-04-27T22:50:03.466Z,3.42
2023-04-27T22:52:33.739Z,6.32
2023-04-27T22:55:03.203Z,6.13
2023-04-27T22:57:30.394Z,8.18
2023-04-27T22:59:57.048Z,7.82
2023-04-27T23:02:23.802Z,6.07
2023-04-27T23:04:50.590Z,4.78
2023-04-27T23:07:19.984Z,6.10
2023-04-27T23:09:48.296Z,7.88
2023-04-27T23:12:14.929Z,8.77
2023-04-27T23:14:42.393Z,5.45
2023-04-27T23:17:10.294Z,6.65
2023-04-27T23:19:36.992Z,5.13
2023-04-27T23:22:03.661Z,3.88
2023-04-27T23:24:30.355Z,6.15
2023-04-27T23:26:57.603Z,4.85
2023-04-27T23:29:24.715Z,4.93
2023-04-27T23:31:51.470Z,8.60
2023-04-27T23:34:18.414Z,7.65
2023-04-27T23:36:45.189Z,7.45
2023-04-27T23:39:11.821Z,6.45
2023-04-27T23:41:38.455Z,6.45
2023-04-27T23:44:05.109Z,6.00
2023-04-27T23:46:31.809Z,4.47
2023-04-27T23:48:58.481Z,5.18
2023-04-27T23:51:25.142Z,7.13
2023-04-27T23:53:51.827Z,6.82
2023-04-27T23:56:18.927Z,5.95
2023-04-27T23:58:45.666Z,4.70
